Stuben, Austria
Current Conditions -  °F | °C
As of 8:55 AM on Sunday 26 Oct 2014 (Local Time) from LIVE Reporting Station
Clear Clear  
Wind Chill: 36°   Ceiling: Unl
Heat Index: 41°   Visibility: 6mi
Dew Point: 37°   Wind: 7mph
Humidity: 87%   Direction: 20°NNE
Pressure: 30.24"   Gusts: NA
Location:  47.13°N, 10.17°E
Report Text: LIVE 260655Z 02006KT CAVOK 05/03 Q1024 RMK SKC VIS MIN 9999
Loading
Personal Weather Stations






























Interactive Weather Map
Tropical Storm Tracking
New forecast layout! Learn more

10-Day Weather Forecast

Advertisements
Track Severe Weather on mobile